createdAt,value
2023-03-15T00:00:43.600Z,21.20
2023-03-15T00:01:43.627Z,21.25
2023-03-15T00:02:43.873Z,21.21
2023-03-15T00:03:43.793Z,21.21
2023-03-15T00:04:43.776Z,21.20
2023-03-15T00:05:43.839Z,21.21
2023-03-15T00:06:43.882Z,21.27
2023-03-15T00:07:42.951Z,21.20
2023-03-15T00:08:43.998Z,21.20
2023-03-15T00:09:44.058Z,21.21
2023-03-15T00:10:44.090Z,21.17
2023-03-15T00:11:44.162Z,21.20
2023-03-15T00:12:44.218Z,21.20
2023-03-15T00:13:44.274Z,21.18
2023-03-15T00:14:43.321Z,21.18
2023-03-15T00:15:44.422Z,21.17
2023-03-15T00:16:44.568Z,21.17
2023-03-15T00:17:44.514Z,21.22
2023-03-15T00:18:43.564Z,21.22
2023-03-15T00:19:43.619Z,21.22
2023-03-15T00:20:43.693Z,21.27
2023-03-15T00:21:44.763Z,21.30
2023-03-15T00:22:44.809Z,21.31
2023-03-15T00:23:44.881Z,21.31
2023-03-15T00:24:43.949Z,21.31
2023-03-15T00:25:44.991Z,21.31
2023-03-15T00:26:45.057Z,21.37
2023-03-15T00:27:45.124Z,21.35
2023-03-15T00:28:44.172Z,21.35
2023-03-15T00:29:45.210Z,21.40
2023-03-15T00:30:44.298Z,21.34
2023-03-15T00:31:45.344Z,21.37
2023-03-15T00:32:44.457Z,21.35
2023-03-15T00:33:44.434Z,21.34
2023-03-15T00:34:45.493Z,21.32
2023-03-15T00:35:45.719Z,21.35
2023-03-15T00:36:44.609Z,21.34
2023-03-15T00:37:44.677Z,21.32
2023-03-15T00:38:45.713Z,21.35
2023-03-15T00:39:45.755Z,21.31
2023-03-15T00:40:45.805Z,21.32
2023-03-15T00:41:44.851Z,21.34
2023-03-15T00:42:45.938Z,21.34
2023-03-15T00:43:45.979Z,21.35
2023-03-15T00:44:45.042Z,21.31
2023-03-15T00:45:46.097Z,21.30
2023-03-15T00:46:45.218Z,21.34
2023-03-15T00:47:46.285Z,21.30
2023-03-15T00:48:46.296Z,21.28
2023-03-15T00:49:46.358Z,21.28
2023-03-15T00:50:46.409Z,21.28
2023-03-15T00:51:46.487Z,21.28
2023-03-15T00:52:46.540Z,21.32
2023-03-15T00:53:45.587Z,21.30
2023-03-15T00:54:46.644Z,21.24
2023-03-15T00:55:46.687Z,21.25
2023-03-15T00:56:46.756Z,21.27
2023-03-15T00:57:45.819Z,21.25
2023-03-15T00:58:46.898Z,21.25
2023-03-15T00:59:46.944Z,21.22
2023-03-15T01:00:47.019Z,21.24
2023-03-15T01:01:47.157Z,21.25
2023-03-15T01:02:46.152Z,21.27
2023-03-15T01:03:46.216Z,21.24
2023-03-15T01:04:47.253Z,21.27
2023-03-15T01:05:46.311Z,21.28
2023-03-15T01:06:47.393Z,21.25
2023-03-15T01:07:47.450Z,21.24
2023-03-15T01:08:47.517Z,21.22
2023-03-15T01:09:48.602Z,21.24
2023-03-15T01:10:47.633Z,21.27
2023-03-15T01:11:47.690Z,21.28
2023-03-15T01:12:47.762Z,21.22
2023-03-15T01:13:47.841Z,21.27
2023-03-15T01:14:47.900Z,21.28
2023-03-15T01:15:48.029Z,21.24
2023-03-15T01:16:48.036Z,21.21
2023-03-15T01:17:48.091Z,21.22
2023-03-15T01:18:48.174Z,21.21
2023-03-15T01:19:48.234Z,21.21
2023-03-15T01:20:48.281Z,21.24
2023-03-15T01:21:48.329Z,21.25
2023-03-15T01:22:48.381Z,21.22
2023-03-15T01:23:48.465Z,21.25
2023-03-15T01:24:48.514Z,21.24
2023-03-15T01:25:48.561Z,21.22
2023-03-15T01:26:48.639Z,21.21
2023-03-15T01:27:47.736Z,21.21
2023-03-15T01:28:48.793Z,21.21
2023-03-15T01:29:48.833Z,21.24
2023-03-15T01:30:49.750Z,21.21
2023-03-15T01:31:49.066Z,21.21
2023-03-15T01:32:49.216Z,21.17
2023-03-15T01:33:48.087Z,21.21
2023-03-15T01:34:49.141Z,21.20
2023-03-15T01:35:49.298Z,21.17
2023-03-15T01:36:49.288Z,21.18
2023-03-15T01:37:49.369Z,21.18
2023-03-15T01:38:49.487Z,21.17
2023-03-15T01:39:49.460Z,21.15
2023-03-15T01:40:49.524Z,21.15
2023-03-15T01:41:49.585Z,21.20
2023-03-15T01:42:49.642Z,21.15
2023-03-15T01:43:48.699Z,21.15
2023-03-15T01:44:49.779Z,21.20
2023-03-15T01:45:49.853Z,21.18
2023-03-15T01:46:49.955Z,21.13
2023-03-15T01:47:49.960Z,21.14
2023-03-15T01:48:50.000Z,21.15
2023-03-15T01:49:50.054Z,21.17
2023-03-15T01:50:50.093Z,21.17
2023-03-15T01:51:50.166Z,21.17
2023-03-15T01:52:49.182Z,21.14
2023-03-15T01:53:50.239Z,21.14
2023-03-15T01:54:50.279Z,21.11
2023-03-15T01:55:50.320Z,21.14
2023-03-15T01:56:50.374Z,21.13
2023-03-15T01:57:50.407Z,21.13
2023-03-15T01:58:50.451Z,21.15
2023-03-15T01:59:49.495Z,21.10
2023-03-15T02:00:49.577Z,21.13
2023-03-15T02:01:49.674Z,21.13
2023-03-15T02:02:50.566Z,21.11
2023-03-15T02:03:49.630Z,21.13
2023-03-15T02:04:50.710Z,21.11
2023-03-15T02:05:50.773Z,21.15
2023-03-15T02:06:50.828Z,21.10
2023-03-15T02:07:50.919Z,21.11
2023-03-15T02:08:50.956Z,21.14
2023-03-15T02:09:50.999Z,21.08
2023-03-15T02:10:51.057Z,21.11
2023-03-15T02:11:50.148Z,21.08
2023-03-15T02:12:50.202Z,21.07
2023-03-15T02:13:51.255Z,21.13
2023-03-15T02:14:51.309Z,21.11
2023-03-15T02:15:51.362Z,21.14
2023-03-15T02:16:51.517Z,21.07
2023-03-15T02:17:51.480Z,21.08
2023-03-15T02:18:51.531Z,21.08
2023-03-15T02:19:51.561Z,21.11
2023-03-15T02:20:51.594Z,21.05
2023-03-15T02:21:50.589Z,21.10
2023-03-15T02:22:51.637Z,21.07
2023-03-15T02:23:51.722Z,21.10
2023-03-15T02:24:50.774Z,21.10
2023-03-15T02:25:51.820Z,21.10
2023-03-15T02:26:52.046Z,21.10
2023-03-15T02:27:50.942Z,21.07
2023-03-15T02:28:52.006Z,21.10
2023-03-15T02:29:52.068Z,21.05
2023-03-15T02:30:52.112Z,21.11
2023-03-15T02:31:52.246Z,21.08
2023-03-15T02:32:51.311Z,21.10
2023-03-15T02:33:52.297Z,21.11
2023-03-15T02:34:52.344Z,21.07
2023-03-15T02:35:52.485Z,21.05
2023-03-15T02:36:52.501Z,21.07
2023-03-15T02:37:52.569Z,21.08
2023-03-15T02:38:52.637Z,21.08
2023-03-15T02:39:52.696Z,21.07
2023-03-15T02:40:52.756Z,21.15
2023-03-15T02:41:52.772Z,21.17
2023-03-15T02:42:51.830Z,21.17
2023-03-15T02:43:52.859Z,21.15
2023-03-15T02:44:51.896Z,21.17
2023-03-15T02:45:53.055Z,21.21
2023-03-15T02:46:52.035Z,21.18
2023-03-15T02:47:52.035Z,21.22
2023-03-15T02:48:53.074Z,21.24
2023-03-15T02:49:53.117Z,21.25
2023-03-15T02:50:53.188Z,21.24
2023-03-15T02:51:53.748Z,21.27
2023-03-15T02:52:53.296Z,21.30
2023-03-15T02:53:53.355Z,21.22
2023-03-15T02:54:53.409Z,21.31
2023-03-15T02:55:53.532Z,21.28
2023-03-15T02:56:53.538Z,21.30
2023-03-15T02:57:53.628Z,21.32
2023-03-15T02:58:52.671Z,21.34
2023-03-15T02:59:53.723Z,21.37
2023-03-15T03:00:54.133Z,21.35
2023-03-15T03:01:52.854Z,21.35
2023-03-15T03:02:53.912Z,21.37
2023-03-15T03:03:53.959Z,21.35
2023-03-15T03:04:54.003Z,21.35
2023-03-15T03:05:54.068Z,21.40
2023-03-15T03:06:54.095Z,21.40
2023-03-15T03:07:54.159Z,21.40
2023-03-15T03:08:54.207Z,21.41
2023-03-15T03:09:54.274Z,21.45
2023-03-15T03:10:54.320Z,21.42
2023-03-15T03:11:54.402Z,21.41
2023-03-15T03:12:53.492Z,21.44
2023-03-15T03:13:54.447Z,21.46
2023-03-15T03:14:54.513Z,21.46
2023-03-15T03:15:54.570Z,21.49
2023-03-15T03:16:54.602Z,21.48
2023-03-15T03:17:53.684Z,21.48
2023-03-15T03:18:54.681Z,21.48
2023-03-15T03:19:54.725Z,21.49
2023-03-15T03:20:54.790Z,21.51
2023-03-15T03:21:54.809Z,21.49
2023-03-15T03:22:54.862Z,21.48
2023-03-15T03:23:54.892Z,21.49
2023-03-15T03:24:54.931Z,21.51
2023-03-15T03:25:54.991Z,21.55
2023-03-15T03:26:54.008Z,21.55
2023-03-15T03:27:55.058Z,21.55
2023-03-15T03:28:54.087Z,21.56
2023-03-15T03:29:55.124Z,21.56
2023-03-15T03:30:54.239Z,21.56
2023-03-15T03:31:55.212Z,21.53
2023-03-15T03:32:54.319Z,21.58
2023-03-15T03:33:54.274Z,21.58
2023-03-15T03:34:55.305Z,21.58
2023-03-15T03:35:54.517Z,21.60
2023-03-15T03:36:55.377Z,21.60
2023-03-15T03:37:55.397Z,21.60
2023-03-15T03:38:55.443Z,21.59
2023-03-15T03:39:55.472Z,21.60
2023-03-15T03:40:55.493Z,21.62
2023-03-15T03:41:55.754Z,21.60
2023-03-15T03:42:55.528Z,21.63
2023-03-15T03:43:55.579Z,21.58
2023-03-15T03:44:55.596Z,21.62
2023-03-15T03:45:55.622Z,21.63
2023-03-15T03:46:54.613Z,21.63
2023-03-15T03:47:55.640Z,21.65
2023-03-15T03:48:55.670Z,21.65
2023-03-15T03:49:55.681Z,21.66
2023-03-15T03:50:54.688Z,21.66
2023-03-15T03:51:55.728Z,21.69
2023-03-15T03:52:55.750Z,21.63
2023-03-15T03:53:54.757Z,21.66
2023-03-15T03:54:55.805Z,21.62
2023-03-15T03:55:55.847Z,21.65
2023-03-15T03:56:55.829Z,21.66
2023-03-15T03:57:55.834Z,21.63
2023-03-15T03:58:55.843Z,21.66
2023-03-15T03:59:55.880Z,21.68
2023-03-15T04:00:55.881Z,21.68
2023-03-15T04:01:55.952Z,21.68
2023-03-15T04:02:55.015Z,21.66
2023-03-15T04:03:54.927Z,21.69
2023-03-15T04:04:56.053Z,21.68
2023-03-15T04:05:55.962Z,21.69
2023-03-15T04:06:54.982Z,21.70
2023-03-15T04:07:56.010Z,21.69
2023-03-15T04:08:56.019Z,21.68
2023-03-15T04:09:56.049Z,21.69
2023-03-15T04:10:56.058Z,21.69
2023-03-15T04:11:56.072Z,21.69
2023-03-15T04:12:55.104Z,21.69
2023-03-15T04:13:56.117Z,21.72
2023-03-15T04:14:55.117Z,21.70
2023-03-15T04:15:55.309Z,21.69
2023-03-15T04:16:55.147Z,21.70
2023-03-15T04:17:55.172Z,21.69
2023-03-15T04:18:55.168Z,21.69
2023-03-15T04:19:56.209Z,21.70
2023-03-15T04:20:56.203Z,21.70
2023-03-15T04:21:55.249Z,21.73
2023-03-15T04:22:56.278Z,21.70
2023-03-15T04:23:56.281Z,21.70
2023-03-15T04:24:56.322Z,21.70
2023-03-15T04:25:56.336Z,21.72
2023-03-15T04:26:56.371Z,21.69
2023-03-15T04:27:56.387Z,21.70
2023-03-15T04:28:55.406Z,21.70
2023-03-15T04:29:56.432Z,21.69
2023-03-15T04:30:56.579Z,21.70
2023-03-15T04:31:56.466Z,21.72
2023-03-15T04:32:56.841Z,21.69
2023-03-15T04:33:56.529Z,21.69
2023-03-15T04:34:55.511Z,21.70
2023-03-15T04:35:55.625Z,21.70
2023-03-15T04:36:55.565Z,21.72
2023-03-15T04:37:56.585Z,21.70
2023-03-15T04:38:56.607Z,21.73
2023-03-15T04:39:56.614Z,21.68
2023-03-15T04:40:55.629Z,21.69
2023-03-15T04:41:55.648Z,21.70
2023-03-15T04:42:55.696Z,21.69
2023-03-15T04:43:56.692Z,21.69
2023-03-15T04:44:56.703Z,21.70
2023-03-15T04:45:56.730Z,21.70
2023-03-15T04:46:55.853Z,21.70
2023-03-15T04:47:56.778Z,21.70
2023-03-15T04:48:56.781Z,21.69
2023-03-15T04:49:55.805Z,21.70
2023-03-15T04:50:56.822Z,21.72
2023-03-15T04:51:56.840Z,21.73
2023-03-15T04:52:56.857Z,21.73
2023-03-15T04:53:56.885Z,21.68
2023-03-15T04:54:56.911Z,21.73
2023-03-15T04:55:56.923Z,21.72
2023-03-15T04:56:56.941Z,21.70
2023-03-15T04:57:55.944Z,21.73
2023-03-15T04:58:56.976Z,21.72
2023-03-15T04:59:56.987Z,21.70
2023-03-15T05:00:57.109Z,21.72
2023-03-15T05:01:57.148Z,21.69
2023-03-15T05:02:56.094Z,21.72
2023-03-15T05:03:57.050Z,21.70
2023-03-15T05:04:57.050Z,21.70
2023-03-15T05:05:57.069Z,21.72
2023-03-15T05:06:57.086Z,21.69
2023-03-15T05:07:57.129Z,21.72
2023-03-15T05:08:57.135Z,21.69
2023-03-15T05:09:57.141Z,21.68
2023-03-15T05:10:57.147Z,21.69
2023-03-15T05:11:57.161Z,21.68
2023-03-15T05:12:57.196Z,21.68
2023-03-15T05:13:57.188Z,21.69
2023-03-15T05:14:57.208Z,21.69
2023-03-15T05:15:57.285Z,21.69
2023-03-15T05:16:56.232Z,21.69
2023-03-15T05:17:57.303Z,21.68
2023-03-15T05:18:57.306Z,21.68
2023-03-15T05:19:57.275Z,21.68
2023-03-15T05:20:57.297Z,21.66
2023-03-15T05:21:57.323Z,21.68
2023-03-15T05:22:57.422Z,21.69
2023-03-15T05:23:57.382Z,21.68
2023-03-15T05:24:57.379Z,21.72
2023-03-15T05:25:57.395Z,21.69
2023-03-15T05:26:57.450Z,21.63
2023-03-15T05:27:57.450Z,21.68
2023-03-15T05:28:57.467Z,21.65
2023-03-15T05:29:56.488Z,21.69
2023-03-15T05:30:57.230Z,21.68
2023-03-15T05:31:57.645Z,21.66
2023-03-15T05:32:56.615Z,21.66
2023-03-15T05:33:57.576Z,21.66
2023-03-15T05:34:57.626Z,21.65
2023-03-15T05:35:56.752Z,21.65
2023-03-15T05:36:57.668Z,21.66
2023-03-15T05:37:57.707Z,21.68
2023-03-15T05:38:57.729Z,21.63
2023-03-15T05:39:57.751Z,21.65
2023-03-15T05:40:56.779Z,21.65
2023-03-15T05:41:57.796Z,21.69
2023-03-15T05:42:57.816Z,21.66
2023-03-15T05:43:57.864Z,21.68
2023-03-15T05:44:57.860Z,21.65
2023-03-15T05:45:56.955Z,21.68
2023-03-15T05:46:57.927Z,21.65
2023-03-15T05:47:56.959Z,21.65
2023-03-15T05:48:56.981Z,21.65
2023-03-15T05:49:58.009Z,21.63
2023-03-15T05:50:58.080Z,21.63
2023-03-15T05:51:58.074Z,21.63
2023-03-15T05:52:58.102Z,21.65
2023-03-15T05:53:58.125Z,21.66
2023-03-15T05:54:58.137Z,21.66
2023-03-15T05:55:57.158Z,21.68
2023-03-15T05:56:58.184Z,21.66
2023-03-15T05:57:58.207Z,21.66
2023-03-15T05:58:58.241Z,21.69
2023-03-15T05:59:58.269Z,21.68
2023-03-15T06:00:58.275Z,21.65
2023-03-15T06:01:58.300Z,21.63
2023-03-15T06:02:58.394Z,21.66
2023-03-15T06:03:58.385Z,21.68
2023-03-15T06:04:58.357Z,21.66
2023-03-15T06:05:58.376Z,21.66
2023-03-15T06:06:58.428Z,21.66
2023-03-15T06:07:58.417Z,21.68
2023-03-15T06:08:58.456Z,21.69
2023-03-15T06:09:58.447Z,21.68
2023-03-15T06:10:58.468Z,21.70
2023-03-15T06:11:58.493Z,21.68
2023-03-15T06:12:58.507Z,21.66
2023-03-15T06:13:57.536Z,21.66
2023-03-15T06:14:58.539Z,21.69
2023-03-15T06:15:58.583Z,21.68
2023-03-15T06:16:58.724Z,21.68
2023-03-15T06:17:57.626Z,21.66
2023-03-15T06:18:58.621Z,21.69
2023-03-15T06:19:58.625Z,21.66
2023-03-15T06:20:57.662Z,21.69
2023-03-15T06:21:58.686Z,21.69
2023-03-15T06:22:58.739Z,21.69
2023-03-15T06:23:57.716Z,21.68
2023-03-15T06:24:58.766Z,21.69
2023-03-15T06:25:58.739Z,21.72
2023-03-15T06:26:58.774Z,21.70
2023-03-15T06:27:57.778Z,21.75
2023-03-15T06:28:58.790Z,21.73
2023-03-15T06:29:58.796Z,21.80
2023-03-15T06:30:58.861Z,21.86
2023-03-15T06:31:58.811Z,21.87
2023-03-15T06:32:58.898Z,21.82
2023-03-15T06:33:57.823Z,21.83
2023-03-15T06:34:58.832Z,21.86
2023-03-15T06:35:58.906Z,21.92
2023-03-15T06:36:58.857Z,21.90
2023-03-15T06:37:58.862Z,21.92
2023-03-15T06:38:58.919Z,21.89
2023-03-15T06:39:58.865Z,21.86
2023-03-15T06:40:58.885Z,21.89
2023-03-15T06:41:58.893Z,21.93
2023-03-15T06:42:58.906Z,21.87
2023-03-15T06:43:58.911Z,21.90
2023-03-15T06:44:58.917Z,21.93
2023-03-15T06:45:58.989Z,21.92
2023-03-15T06:46:58.935Z,21.92
2023-03-15T06:47:58.937Z,21.93
2023-03-15T06:48:59.016Z,21.93
2023-03-15T06:49:59.814Z,21.96
2023-03-15T06:50:58.950Z,22.10
2023-03-15T06:51:58.949Z,22.17
2023-03-15T06:52:58.949Z,22.11
2023-03-15T06:53:58.949Z,22.14
2023-03-15T06:54:59.026Z,22.06
2023-03-15T06:55:58.950Z,21.92
2023-03-15T06:56:58.960Z,21.73
2023-03-15T06:57:59.004Z,21.08
2023-03-15T06:58:59.003Z,20.94
2023-03-15T06:59:59.073Z,20.74
2023-03-15T07:00:59.105Z,20.93
2023-03-15T07:01:58.283Z,21.10
2023-03-15T07:02:59.240Z,21.15
2023-03-15T07:03:59.262Z,21.32
2023-03-15T07:04:59.376Z,21.48
2023-03-15T07:05:59.347Z,21.63
2023-03-15T07:06:58.379Z,21.70
2023-03-15T07:07:59.457Z,21.85
2023-03-15T07:08:58.450Z,21.97
2023-03-15T07:09:59.472Z,22.11
2023-03-15T07:10:59.514Z,22.34
2023-03-15T07:11:59.501Z,22.45
2023-03-15T07:12:58.765Z,22.48
2023-03-15T07:13:59.607Z,22.59
2023-03-15T07:14:59.600Z,22.52
2023-03-15T07:15:59.931Z,22.50
2023-03-15T07:16:59.650Z,22.43
2023-03-15T07:17:59.716Z,22.45
2023-03-15T07:18:59.944Z,22.45
2023-03-15T07:19:59.857Z,22.48
2023-03-15T07:20:59.969Z,22.55
2023-03-15T07:21:59.955Z,22.59
2023-03-15T07:22:59.968Z,22.61
2023-03-15T07:24:00.001Z,22.56
2023-03-15T07:25:00.078Z,22.55
2023-03-15T07:25:59.122Z,22.45
2023-03-15T07:27:00.269Z,22.52
2023-03-15T07:28:00.257Z,22.48
2023-03-15T07:29:00.317Z,22.20
2023-03-15T07:29:59.575Z,22.34
2023-03-15T07:31:00.453Z,22.37
2023-03-15T07:32:00.813Z,22.47
2023-03-15T07:33:00.709Z,22.43
2023-03-15T07:34:00.826Z,22.44
2023-03-15T07:35:00.712Z,22.52
2023-03-15T07:36:00.819Z,22.52
2023-03-15T07:37:00.798Z,22.62
2023-03-15T07:38:00.875Z,22.54
2023-03-15T07:39:00.920Z,22.61
2023-03-15T07:40:00.963Z,22.71
2023-03-15T07:41:01.020Z,22.73
2023-03-15T07:42:01.048Z,22.96
2023-03-15T07:43:01.139Z,23.05
2023-03-15T07:44:01.124Z,23.09
2023-03-15T07:45:01.192Z,23.10
2023-03-15T07:46:01.215Z,23.17
2023-03-15T07:47:01.370Z,23.21
2023-03-15T07:48:01.277Z,23.20
2023-03-15T07:49:01.266Z,23.23
2023-03-15T07:50:00.626Z,23.21
2023-03-15T07:51:01.310Z,23.33
2023-03-15T07:52:01.373Z,23.29
2023-03-15T07:53:01.366Z,23.16
2023-03-15T07:54:00.870Z,22.96
2023-03-15T07:55:01.421Z,22.85
2023-03-15T07:56:00.493Z,22.78
2023-03-15T07:57:01.493Z,22.51
2023-03-15T07:58:00.520Z,22.56
2023-03-15T07:59:01.958Z,22.68
2023-03-15T08:00:00.600Z,22.89
2023-03-15T08:01:01.628Z,22.96
2023-03-15T08:02:03.451Z,23.07
2023-03-15T08:03:01.776Z,23.10
2023-03-15T08:04:01.705Z,23.29
2023-03-15T08:05:01.670Z,23.29
2023-03-15T08:06:01.678Z,23.43
2023-03-15T08:07:01.665Z,23.41
2023-03-15T08:08:01.625Z,23.41
2023-03-15T08:09:00.628Z,23.51
2023-03-15T08:10:01.702Z,23.51
2023-03-15T08:11:01.726Z,23.51
2023-03-15T08:12:01.897Z,23.54
2023-03-15T08:13:01.819Z,23.64
2023-03-15T08:14:01.678Z,23.62
2023-03-15T08:15:01.721Z,23.75
2023-03-15T08:16:01.681Z,23.67
2023-03-15T08:17:01.569Z,23.81
2023-03-15T08:18:01.607Z,23.82
2023-03-15T08:19:01.628Z,23.89
2023-03-15T08:20:00.536Z,23.79
2023-03-15T08:21:01.777Z,23.91
2023-03-15T08:22:01.602Z,23.89
2023-03-15T08:23:00.542Z,23.91
2023-03-15T08:24:00.536Z,24.01
2023-03-15T08:25:01.537Z,24.01
2023-03-15T08:26:01.632Z,24.01
2023-03-15T08:27:01.514Z,23.96
2023-03-15T08:28:01.516Z,23.96
2023-03-15T08:29:01.547Z,23.85
2023-03-15T08:30:01.535Z,23.88
2023-03-15T08:31:01.507Z,23.89
2023-03-15T08:32:01.544Z,23.99
2023-03-15T08:33:01.509Z,23.89
2023-03-15T08:34:01.465Z,24.04
2023-03-15T08:35:00.457Z,24.02
2023-03-15T08:36:01.552Z,24.01
2023-03-15T08:37:00.451Z,24.02
2023-03-15T08:38:02.347Z,24.08
2023-03-15T08:39:01.506Z,24.13
2023-03-15T08:40:01.579Z,24.12
2023-03-15T08:41:01.606Z,24.20
2023-03-15T08:42:01.616Z,24.11
2023-03-15T08:43:01.616Z,24.15
2023-03-15T08:44:01.647Z,24.17
2023-03-15T08:45:00.662Z,24.09
2023-03-15T08:46:01.813Z,24.08
2023-03-15T08:47:00.831Z,24.25
2023-03-15T08:48:01.751Z,24.32
2023-03-15T08:49:00.791Z,24.20
2023-03-15T08:50:02.007Z,24.11
2023-03-15T08:51:00.799Z,24.19
2023-03-15T08:52:01.849Z,24.13
2023-03-15T08:53:00.860Z,24.11
2023-03-15T08:54:01.867Z,24.12
2023-03-15T08:55:00.921Z,24.04
2023-03-15T08:56:01.913Z,23.99
2023-03-15T08:57:02.012Z,24.02
2023-03-15T08:58:03.441Z,23.94
2023-03-15T08:59:01.982Z,23.95
2023-03-15T09:00:02.032Z,23.82
2023-03-15T09:01:00.970Z,23.82
2023-03-15T09:02:01.124Z,23.85
2023-03-15T09:03:01.969Z,23.79
2023-03-15T09:04:00.953Z,23.78
2023-03-15T09:05:01.988Z,23.75
2023-03-15T09:06:01.952Z,23.77
2023-03-15T09:07:01.931Z,23.72
2023-03-15T09:08:01.963Z,23.71
2023-03-15T09:09:01.909Z,23.68
2023-03-15T09:10:04.149Z,23.72
2023-03-15T09:11:01.989Z,23.72
2023-03-15T09:12:01.925Z,23.72
2023-03-15T09:13:01.887Z,23.71
2023-03-15T09:14:01.907Z,23.72
2023-03-15T09:15:01.866Z,23.71
2023-03-15T09:16:02.854Z,23.75
2023-03-15T09:17:00.909Z,23.74
2023-03-15T09:18:01.382Z,23.75
2023-03-15T09:19:00.869Z,23.71
2023-03-15T09:20:01.865Z,23.72
2023-03-15T09:21:01.846Z,23.77
2023-03-15T09:22:16.056Z,23.72
2023-03-15T09:23:01.835Z,23.75
2023-03-15T09:24:01.824Z,23.75
2023-03-15T09:25:01.810Z,23.75
2023-03-15T09:26:01.824Z,23.74
2023-03-15T09:27:01.803Z,23.77
2023-03-15T09:28:01.798Z,23.77
2023-03-15T09:29:01.797Z,23.82
2023-03-15T09:30:00.838Z,23.81
2023-03-15T09:31:00.805Z,23.78
2023-03-15T09:32:01.756Z,23.85
2023-03-15T09:33:01.831Z,23.79
2023-03-15T09:34:01.749Z,23.84
2023-03-15T09:35:01.794Z,23.84
2023-03-15T09:36:01.788Z,23.85
2023-03-15T09:37:00.720Z,23.88
2023-03-15T09:38:01.724Z,23.86
2023-03-15T09:39:01.701Z,23.88
2023-03-15T09:40:01.762Z,23.91
2023-03-15T09:41:01.725Z,23.91
2023-03-15T09:42:01.732Z,23.84
2023-03-15T09:43:01.724Z,23.36
2023-03-15T09:44:01.692Z,22.69
2023-03-15T09:45:01.883Z,22.40
2023-03-15T09:46:01.724Z,22.11
2023-03-15T09:47:01.646Z,21.44
2023-03-15T09:48:01.730Z,21.35
2023-03-15T09:49:00.642Z,21.13
2023-03-15T09:50:01.666Z,20.87
2023-03-15T09:51:01.660Z,20.59
2023-03-15T09:52:01.615Z,20.70
2023-03-15T09:53:01.629Z,20.43
2023-03-15T09:54:01.628Z,20.39
2023-03-15T09:55:00.986Z,20.33
2023-03-15T09:56:01.600Z,20.14
2023-03-15T09:57:01.624Z,19.95
2023-03-15T09:58:00.660Z,20.04
2023-03-15T09:59:03.409Z,20.11
2023-03-15T10:00:01.944Z,20.15
2023-03-15T10:01:01.999Z,20.09
2023-03-15T10:02:01.173Z,20.08
2023-03-15T10:03:02.101Z,19.97
2023-03-15T10:04:01.168Z,20.02
2023-03-15T10:05:02.239Z,19.95
2023-03-15T10:06:01.268Z,20.08
2023-03-15T10:07:01.357Z,19.94
2023-03-15T10:08:02.368Z,19.91
2023-03-15T10:09:02.445Z,20.01
2023-03-15T10:10:01.524Z,20.14
2023-03-15T10:11:01.543Z,20.22
2023-03-15T10:12:02.582Z,20.40
2023-03-15T10:13:02.701Z,20.46
2023-03-15T10:14:02.703Z,20.57
2023-03-15T10:15:02.701Z,20.60
2023-03-15T10:16:02.864Z,20.72
2023-03-15T10:17:02.764Z,20.67
2023-03-15T10:18:02.811Z,20.79
2023-03-15T10:19:02.809Z,20.73
2023-03-15T10:20:01.873Z,20.77
2023-03-15T10:21:02.924Z,20.83
2023-03-15T10:22:02.923Z,20.83
2023-03-15T10:23:02.943Z,20.90
2023-03-15T10:24:01.961Z,20.74
2023-03-15T10:25:02.980Z,20.79
2023-03-15T10:26:02.993Z,20.72
2023-03-15T10:27:03.006Z,20.74
2023-03-15T10:28:03.047Z,20.60
2023-03-15T10:29:03.073Z,20.67
2023-03-15T10:30:03.088Z,20.67
2023-03-15T10:31:03.191Z,20.56
2023-03-15T10:32:03.216Z,20.55
2023-03-15T10:33:03.298Z,20.42
2023-03-15T10:34:03.204Z,20.32
2023-03-15T10:35:03.220Z,20.40
2023-03-15T10:36:11.015Z,20.46
2023-03-15T10:37:03.503Z,20.47
2023-03-15T10:38:03.348Z,20.56
2023-03-15T10:39:03.305Z,20.59
2023-03-15T10:40:03.233Z,20.70
2023-03-15T10:41:03.256Z,20.77
2023-03-15T10:42:03.220Z,20.63
2023-03-15T10:43:02.242Z,20.62
2023-03-15T10:44:03.462Z,20.59
2023-03-15T10:45:03.238Z,20.50
2023-03-15T10:46:02.246Z,20.39
2023-03-15T10:47:16.024Z,20.55
2023-03-15T10:48:03.198Z,20.84
2023-03-15T10:49:03.168Z,20.95
2023-03-15T10:50:03.163Z,21.05
2023-03-15T10:51:03.401Z,21.11
2023-03-15T10:52:03.153Z,21.15
2023-03-15T10:53:03.146Z,21.32
2023-03-15T10:54:03.206Z,21.38
2023-03-15T10:55:04.589Z,21.51
2023-03-15T10:56:02.452Z,21.59
2023-03-15T10:57:03.627Z,21.75
2023-03-15T10:58:02.795Z,21.78
2023-03-15T10:59:12.606Z,21.62
2023-03-15T11:00:03.658Z,21.44
2023-03-15T11:01:03.618Z,21.60
2023-03-15T11:02:03.716Z,21.46
2023-03-15T11:03:03.558Z,21.48
2023-03-15T11:05:03.508Z,21.49
2023-03-15T11:06:02.589Z,22.00
2023-03-15T11:07:02.502Z,22.24
2023-03-15T11:08:03.532Z,22.51
2023-03-15T11:09:02.513Z,22.65
2023-03-15T11:10:03.616Z,22.86
2023-03-15T11:11:03.490Z,23.09
2023-03-15T11:12:03.515Z,23.19
2023-03-15T11:13:03.466Z,23.27
2023-03-15T11:14:02.444Z,23.29
2023-03-15T11:15:02.547Z,23.27
2023-03-15T11:16:03.516Z,23.50
2023-03-15T11:17:03.442Z,23.57
2023-03-15T11:18:02.449Z,23.61
2023-03-15T11:19:03.510Z,23.58
2023-03-15T11:20:03.483Z,23.68
2023-03-15T11:21:03.419Z,23.67
2023-03-15T11:22:03.450Z,23.64
2023-03-15T11:23:03.418Z,23.71
2023-03-15T11:24:02.443Z,23.77
2023-03-15T11:25:03.590Z,23.72
2023-03-15T11:26:03.376Z,23.81
2023-03-15T11:27:02.410Z,23.81
2023-03-15T11:28:03.384Z,23.86
2023-03-15T11:29:03.368Z,23.86
2023-03-15T11:30:03.374Z,23.81
2023-03-15T11:31:03.433Z,23.81
2023-03-15T11:32:03.386Z,23.72
2023-03-15T11:33:03.490Z,23.61
2023-03-15T11:34:03.476Z,23.74
2023-03-15T11:35:03.501Z,23.84
2023-03-15T11:36:03.696Z,23.82
2023-03-15T11:37:08.480Z,23.98
2023-03-15T11:38:14.570Z,23.95
2023-03-15T11:39:03.629Z,24.02
2023-03-15T11:40:11.578Z,24.02
2023-03-15T11:41:03.574Z,23.69
2023-03-15T11:42:02.560Z,23.57
2023-03-15T11:43:03.617Z,23.24
2023-03-15T11:44:03.562Z,23.39
2023-03-15T11:46:04.220Z,23.33
2023-03-15T11:47:03.520Z,23.37
2023-03-15T11:48:03.515Z,23.48
2023-03-15T11:49:03.517Z,23.56
2023-03-15T11:50:03.497Z,23.61
2023-03-15T11:51:03.525Z,23.67
2023-03-15T11:52:03.512Z,23.69
2023-03-15T11:53:03.522Z,23.74
2023-03-15T11:54:03.500Z,23.79
2023-03-15T11:56:03.459Z,23.89
2023-03-15T11:57:03.478Z,23.92
2023-03-15T11:58:03.487Z,23.94
2023-03-15T11:59:03.469Z,23.94
2023-03-15T12:00:03.491Z,24.04
2023-03-15T12:01:03.460Z,24.01
2023-03-15T12:02:03.507Z,23.99
2023-03-15T12:03:03.441Z,24.12
2023-03-15T12:04:03.509Z,24.06
2023-03-15T12:05:15.874Z,24.08
2023-03-15T12:06:03.486Z,24.11
2023-03-15T12:07:03.573Z,24.05
2023-03-15T12:08:03.621Z,24.06
2023-03-15T12:09:03.407Z,24.13
2023-03-15T12:10:03.410Z,24.16
2023-03-15T12:11:03.625Z,24.15
2023-03-15T12:12:03.365Z,24.15
2023-03-15T12:13:03.358Z,24.26
2023-03-15T12:14:03.574Z,24.20
2023-03-15T12:15:03.469Z,24.26
2023-03-15T12:16:03.361Z,24.29
2023-03-15T12:17:02.521Z,24.34
2023-03-15T12:19:03.369Z,24.30
2023-03-15T12:21:03.379Z,24.22
2023-03-15T12:22:03.297Z,24.26
2023-03-15T12:23:03.310Z,24.27
2023-03-15T12:24:03.300Z,24.29
2023-03-15T12:25:03.270Z,24.26
2023-03-15T12:26:03.298Z,24.20
2023-03-15T12:27:03.400Z,24.33
2023-03-15T12:28:03.520Z,24.25
2023-03-15T12:29:02.281Z,24.30
2023-03-15T12:30:03.304Z,24.36
2023-03-15T12:31:03.692Z,24.33
2023-03-15T12:32:03.265Z,24.27
2023-03-15T12:33:03.337Z,24.30
2023-03-15T12:34:03.249Z,24.30
2023-03-15T12:35:03.234Z,24.32
2023-03-15T12:36:02.306Z,24.33
2023-03-15T12:37:02.214Z,24.49
2023-03-15T12:38:02.197Z,23.99
2023-03-15T12:39:03.251Z,23.85
2023-03-15T12:40:02.213Z,23.95
2023-03-15T12:41:03.304Z,23.96
2023-03-15T12:42:03.322Z,23.89
2023-03-15T12:43:03.353Z,23.82
2023-03-15T12:44:03.431Z,23.82
2023-03-15T12:45:03.492Z,23.78
2023-03-15T12:46:03.549Z,23.65
2023-03-15T12:47:03.611Z,23.62
2023-03-15T12:48:02.625Z,23.58
2023-03-15T12:49:02.667Z,23.54
2023-03-15T12:50:03.737Z,23.56
2023-03-15T12:51:02.785Z,23.60
2023-03-15T12:52:03.847Z,23.60
2023-03-15T12:53:03.917Z,23.58
2023-03-15T12:54:03.957Z,23.60
2023-03-15T12:55:03.013Z,23.67
2023-03-15T12:56:08.777Z,23.64
2023-03-15T12:57:04.075Z,23.69
2023-03-15T12:58:04.068Z,23.61